Time;durP1;ratioP1;P1;durP2;ratioP2;P2;SDS_P1;SDS_P2;PMS_P1;PMS_P2;Temp;Humidity;BMP_temperature;BMP_pressure;BME280_temperature;BME280_humidity;BME280_pressure;Samples;Min_cycle;Max_cycle;Signal;HPM_P1;HPM_P2
2023/07/01 00:01:07;;;;;;;7.40;6.88;;;;;;;-144.30;75.77;84788.19;5071844;28;20223;-75
2023/07/01 00:03:34;;;;;;;6.45;5.95;;;;;;;-144.30;75.77;84712.66;5072772;28;20210;-74
2023/07/01 00:06:03;;;;;;;6.72;6.03;;;;;;;-144.30;76.07;84742.47;5071851;28;20210;-76
2023/07/01 00:08:30;;;;;;;6.45;6.05;;;;;;;-144.30;75.91;84738.47;5072331;28;20227;-78
2023/07/01 00:11:00;;;;;;;7.28;6.57;;;;;;;-144.30;76.31;84752.41;5072391;28;20231;-76
2023/07/01 00:13:28;;;;;;;6.63;6.13;;;;;;;-144.30;76.80;84752.41;5072800;28;20196;-76
2023/07/01 00:15:55;;;;;;;6.07;5.78;;;;;;;-144.30;76.51;84631.16;5072443;28;20207;-77
2023/07/01 00:18:22;;;;;;;8.57;6.60;;;;;;;-144.30;76.31;84694.75;5072587;28;20240;-76
2023/07/01 00:20:49;;;;;;;6.55;6.00;;;;;;;-144.30;76.12;84704.69;5073032;28;20579;-77
2023/07/01 00:23:17;;;;;;;9.35;6.78;;;;;;;-144.30;75.83;84734.50;5072105;28;20203;-77
2023/07/01 00:25:44;;;;;;;7.68;7.18;;;;;;;-144.30;76.18;84762.34;5072939;28;20192;-76
2023/07/01 00:28:11;;;;;;;9.15;6.85;;;;;;;-144.30;76.44;84764.31;5072701;28;20278;-76
2023/07/01 00:30:38;;;;;;;7.35;6.75;;;;;;;-144.30;76.60;84529.81;5075278;28;20226;-80
2023/07/01 00:33:05;;;;;;;7.38;6.70;;;;;;;-144.30;76.22;84776.25;5075455;28;20203;-79
2023/07/01 00:35:32;;;;;;;6.80;6.40;;;;;;;-144.30;76.00;84764.31;5076082;28;20196;-79
2023/07/01 00:37:59;;;;;;;7.25;6.68;;;;;;;-144.30;76.56;84764.31;5076796;28;20207;-79
2023/07/01 00:40:27;;;;;;;6.88;6.47;;;;;;;-144.30;76.88;84794.13;5077880;28;20226;-79
2023/07/01 00:42:54;;;;;;;7.10;6.60;;;;;;;-144.30;77.17;84760.34;5079135;28;20200;-80
2023/07/01 00:45:21;;;;;;;7.32;6.80;;;;;;;-144.30;77.00;84772.28;5075004;28;20202;-79
2023/07/01 00:47:48;;;;;;;7.55;6.95;;;;;;;-144.30;76.66;84704.69;5075470;28;20204;-80
2023/07/01 00:50:17;;;;;;;7.25;6.85;;;;;;;-144.30;76.37;84708.66;5073350;28;20222;-76
2023/07/01 00:52:45;;;;;;;7.18;6.78;;;;;;;-144.30;75.74;84804.06;5073090;28;20227;-76
2023/07/01 00:55:12;;;;;;;7.57;7.00;;;;;;;-144.30;76.08;84831.91;5075145;28;20241;-76
2023/07/01 00:57:41;;;;;;;7.63;6.82;;;;;;;-144.30;75.94;84792.16;5074884;28;20200;-75
2023/07/01 01:00:11;;;;;;;7.25;6.75;;;;;;;-144.30;76.38;84812.03;5074894;28;20212;-76
2023/07/01 01:02:51;;;;;;;7.63;7.13;;;;;;;-144.30;76.17;84819.97;5075838;28;20211;-79
2023/07/01 01:05:23;;;;;;;7.43;6.93;;;;;;;-144.30;76.08;84776.25;5077989;28;20660;-78
2023/07/01 01:08:03;;;;;;;8.15;7.45;;;;;;;-144.30;76.18;84796.13;5077681;28;20204;-78
2023/07/01 01:10:33;;;;;;;8.02;7.43;;;;;;;-144.30;76.21;84812.03;5077973;28;20223;-79
2023/07/01 01:13:05;;;;;;;8.75;7.90;;;;;;;-144.30;76.54;84788.19;5077863;28;20196;-80
2023/07/01 01:15:33;;;;;;;8.90;8.23;;;;;;;-144.30;76.80;84541.72;5078856;28;20207;-79
2023/07/01 01:18:04;;;;;;;9.43;8.45;;;;;;;-144.30;77.03;84835.88;5078487;28;20737;-80
2023/07/01 01:20:34;;;;;;;7.95;7.40;;;;;;;-144.30;77.21;84641.09;5078285;28;20242;-78
2023/07/01 01:23:06;;;;;;;8.27;7.78;;;;;;;-144.30;77.60;84814.00;5077887;28;20600;-79
2023/07/01 01:25:38;;;;;;;9.02;8.15;;;;;;;-144.30;77.03;84833.88;5078377;28;20196;-79
2023/07/01 01:28:07;;;;;;;8.43;7.93;;;;;;;-144.30;77.82;84814.00;5077818;28;20589;-80
2023/07/01 01:30:35;;;;;;;8.77;8.18;;;;;;;-144.30;78.22;84814.00;5078051;28;20224;-80
2023/07/01 01:33:02;;;;;;;9.00;8.30;;;;;;;-144.30;78.34;84871.66;5077671;28;20203;-80
2023/07/01 01:35:30;;;;;;;8.68;7.85;;;;;;;-144.30;78.06;84853.78;5074647;28;20259;-77
2023/07/01 01:38:03;;;;;;;9.55;8.75;;;;;;;-144.30;77.21;84831.91;5074161;28;20196;-75
2023/07/01 01:40:34;;;;;;;8.63;8.10;;;;;;;-144.30;76.87;84760.34;5074757;28;20277;-75
2023/07/01 01:43:07;;;;;;;9.85;7.85;;;;;;;-144.30;76.54;84839.84;5074067;28;20203;-76
2023/07/01 01:45:37;;;;;;;8.65;8.15;;;;;;;-144.30;76.61;84768.31;5073845;28;20224;-76
2023/07/01 01:48:05;;;;;;;8.40;7.78;;;;;;;-144.30;76.12;84861.72;5072523;28;20202;-76
2023/07/01 01:50:34;;;;;;;8.70;8.00;;;;;;;-144.30;76.27;84887.56;5074084;28;20230;-76
2023/07/01 01:53:02;;;;;;;8.77;8.15;;;;;;;-144.30;76.72;84887.56;5074196;28;20200;-76
2023/07/01 01:55:31;;;;;;;9.15;8.35;;;;;;;-144.30;77.17;84885.56;5074015;28;20691;-76
2023/07/01 01:57:59;;;;;;;8.93;8.23;;;;;;;-144.30;76.81;84897.50;5074042;28;20591;-76
2023/07/01 02:00:26;;;;;;;10.23;8.60;;;;;;;-144.30;76.90;84855.75;5073562;28;20192;-76
2023/07/01 02:02:54;;;;;;;8.52;7.90;;;;;;;-144.30;76.45;84712.66;5074522;28;20196;-74
2023/07/01 02:05:21;;;;;;;8.95;8.02;;;;;;;-144.30;76.51;84937.25;5072835;28;20688;-75
2023/07/01 02:07:48;;;;;;;8.90;8.10;;;;;;;-144.30;76.57;84919.34;5072850;28;20297;-75
2023/07/01 02:10:15;;;;;;;9.23;8.52;;;;;;;-144.30;77.50;84915.38;5052947;28;20235;-76
2023/07/01 02:12:42;;;;;;;8.18;7.68;;;;;;;-144.30;77.94;84899.47;5054191;28;20336;-75
2023/07/01 02:15:10;;;;;;;8.68;7.97;;;;;;;-144.30;78.80;84927.31;5052903;28;20657;-75
2023/07/01 02:17:37;;;;;;;9.23;8.25;;;;;;;-144.30;79.40;84903.47;5053267;28;20200;-75
2023/07/01 02:20:06;;;;;;;9.18;8.50;;;;;;;-144.30;79.71;84941.22;5053912;28;20192;-75
2023/07/01 02:22:33;;;;;;;8.85;8.23;;;;;;;-144.30;79.10;84895.50;5054436;28;20193;-76
2023/07/01 02:25:00;;;;;;;8.95;8.40;;;;;;;-144.30;78.66;85116.16;5054185;28;20201;-76
2023/07/01 02:27:30;;;;;;;9.40;8.60;;;;;;;-144.30;78.41;84895.50;5053557;28;20193;-76
2023/07/01 02:29:58;;;;;;;9.95;9.00;;;;;;;-144.30;78.76;84919.34;5054083;28;20197;-76
2023/07/01 02:32:25;;;;;;;12.02;9.35;;;;;;;-144.30;79.07;84903.47;5055211;28;20246;-76
2023/07/01 02:34:52;;;;;;;9.75;9.05;;;;;;;-144.30;79.08;84901.47;5053090;28;20586;-76
2023/07/01 02:37:20;;;;;;;8.80;8.20;;;;;;;-144.30;77.66;84873.66;5053008;28;20196;-75
2023/07/01 02:39:47;;;;;;;8.85;8.15;;;;;;;-144.30;77.83;84935.25;5053171;28;20673;-74
2023/07/01 02:42:19;;;;;;;9.27;8.52;;;;;;;-144.30;78.03;84897.50;5051625;28;20641;-75
2023/07/01 02:44:46;;;;;;;9.02;8.52;;;;;;;-144.30;77.02;84885.56;5053044;28;20196;-75
2023/07/01 02:47:13;;;;;;;9.63;8.80;;;;;;;-144.30;76.96;84903.47;5053385;28;20188;-76
2023/07/01 02:49:40;;;;;;;9.02;8.27;;;;;;;-144.30;77.05;84945.19;5053193;28;20197;-76
2023/07/01 02:52:09;;;;;;;9.23;8.43;;;;;;;-144.30;77.17;84931.28;5052212;28;20224;-76
2023/07/01 02:54:39;;;;;;;8.93;8.27;;;;;;;-144.30;77.12;84935.25;5052796;28;20203;-76
2023/07/01 02:57:08;;;;;;;8.63;8.02;;;;;;;-144.30;77.43;84923.34;5052755;28;20204;-75
2023/07/01 02:59:36;;;;;;;9.00;8.32;;;;;;;-144.30;77.44;84943.22;5053493;28;20627;-76
2023/07/01 03:02:04;;;;;;;9.77;8.93;;;;;;;-144.30;77.26;84984.97;5053009;28;20173;-76
2023/07/01 03:04:30;;;;;;;10.18;9.32;;;;;;;-144.30;76.97;84935.25;5053994;28;20716;-76
2023/07/01 03:06:57;;;;;;;9.40;8.55;;;;;;;-144.30;76.71;84939.25;5053072;28;20283;-76
2023/07/01 03:09:24;;;;;;;9.23;8.15;;;;;;;-144.30;76.08;84973.03;5051972;28;20649;-77
2023/07/01 03:11:53;;;;;;;8.70;7.93;;;;;;;-144.30;76.17;84977.00;5051687;28;20712;-76
2023/07/01 03:14:20;;;;;;;8.95;8.07;;;;;;;-144.30;76.46;84959.13;5055218;28;20274;-79
2023/07/01 03:16:47;;;;;;;8.73;8.13;;;;;;;-144.30;76.50;84903.47;5050411;28;20215;-78
2023/07/01 03:19:14;;;;;;;8.63;7.97;;;;;;;-144.30;76.66;85382.53;5053204;28;20193;-77
2023/07/01 03:21:42;;;;;;;10.88;9.18;;;;;;;-144.30;76.51;84895.50;5053214;28;20232;-79
2023/07/01 03:24:09;;;;;;;8.45;7.55;;;;;;;-144.30;76.12;84921.34;5052973;28;20200;-79
2023/07/01 03:26:35;;;;;;;8.65;7.82;;;;;;;-144.30;75.59;84931.28;5041289;28;20187;-78
2023/07/01 03:29:04;;;;;;;9.00;8.20;;;;;;;-144.30;74.91;84945.19;5035746;28;20197;-79
2023/07/01 03:31:32;;;;;;;8.57;8.07;;;;;;;-144.30;74.77;84915.38;5046952;28;20216;-80
2023/07/01 03:33:59;;;;;;;8.63;8.02;;;;;;;-144.30;74.38;84945.19;5055798;28;20227;-80
2023/07/01 03:36:26;;;;;;;8.60;7.90;;;;;;;-144.30;74.49;85364.63;5052094;28;20201;-76
2023/07/01 03:38:54;;;;;;;8.68;7.85;;;;;;;-144.30;73.80;84891.53;5052478;28;20192;-76
2023/07/01 03:41:20;;;;;;;9.15;8.25;;;;;;;-144.30;73.30;84877.63;5051761;28;20212;-77
2023/07/01 03:43:47;;;;;;;8.63;8.00;;;;;;;-144.30;73.69;84863.72;5052181;28;20192;-78
2023/07/01 03:46:16;;;;;;;8.95;8.35;;;;;;;-144.30;73.19;84883.59;5051900;28;20196;-74
2023/07/01 03:48:43;;;;;;;8.25;7.55;;;;;;;-144.30;71.72;84829.91;5035723;28;20200;-76
2023/07/01 03:51:10;;;;;;;8.55;7.70;;;;;;;-144.30;70.02;84804.06;5040985;28;20304;-77
2023/07/01 03:53:38;;;;;;;8.93;7.95;;;;;;;-144.30;68.16;84768.31;5043555;28;20195;-77
2023/07/01 03:56:05;;;;;;;7.80;7.15;;;;;;;-144.30;65.78;84659.00;5039634;28;20196;-77
2023/07/01 03:58:32;;;;;;;7.50;6.97;;;;;;;-144.30;58.98;84410.56;5040111;28;20192;-76
2023/07/01 04:00:59;;;;;;;6.60;6.20;;;;;;;-144.30;51.42;84098.56;5043729;28;20192;-79
2023/07/01 04:03:27;;;;;;;6.25;5.90;;;;;;;-144.30;46.31;83816.38;5039855;28;20204;-77
2023/07/01 04:05:54;;;;;;;6.20;5.80;;;;;;;-144.30;42.06;83434.91;5038413;28;20724;-77
2023/07/01 04:08:21;;;;;;;6.32;5.82;;;;;;;-144.30;38.83;83200.47;5038722;28;25066;-76
2023/07/01 04:10:48;;;;;;;6.03;5.45;;;;;;;-144.30;36.89;83007.75;5036736;28;20229;-77
2023/07/01 04:13:15;;;;;;;5.85;5.32;;;;;;;-144.30;35.23;82825.00;5044269;28;20224;-77
2023/07/01 04:15:42;;;;;;;5.97;5.40;;;;;;;-144.30;34.67;82705.81;5038486;28;20228;-76
2023/07/01 04:18:09;;;;;;;6.05;5.60;;;;;;;-144.30;33.33;82320.47;5042464;28;20204;-76
2023/07/01 04:20:40;;;;;;;6.28;5.78;;;;;;;-144.30;32.27;82252.94;5042722;28;20573;-78
2023/07/01 04:23:06;;;;;;;7.15;6.22;;;;;;;-144.30;31.35;82038.44;5032514;28;20224;-80
2023/07/01 04:25:34;;;;;;;5.10;4.70;;;;;;;-144.30;30.26;81764.38;5031987;28;20204;-79
2023/07/01 04:28:02;;;;;;;4.93;4.40;;;;;;;-144.30;29.50;81607.50;5043465;28;20576;-79
2023/07/01 04:30:29;;;;;;;5.00;4.70;;;;;;;-144.30;29.09;81508.22;5054746;28;20349;-79
2023/07/01 04:32:56;;;;;;;8.05;5.63;;;;;;;-144.30;28.99;81478.44;5047105;28;20295;-79
2023/07/01 04:35:23;;;;;;;5.50;5.10;;;;;;;-144.30;28.56;81271.94;5047740;28;20211;-81
2023/07/01 04:37:51;;;;;;;5.05;4.75;;;;;;;-144.30;28.57;81273.91;5044556;28;20200;-78
2023/07/01 04:40:18;;;;;;;5.10;4.75;;;;;;;-144.30;28.05;81170.69;5044900;28;20223;-78
2023/07/01 04:42:48;;;;;;;5.53;4.68;;;;;;;-144.30;27.69;81144.88;5047219;28;20697;-79
2023/07/01 04:45:18;;;;;;;5.15;4.70;;;;;;;-144.30;27.62;81047.56;5036083;28;20683;-79
2023/07/01 04:47:46;;;;;;;4.97;4.38;;;;;;;-144.30;27.69;81001.91;5035883;28;20197;-79
2023/07/01 04:50:13;;;;;;;4.40;4.10;;;;;;;-144.30;26.92;80821.25;5035925;28;20229;-79
2023/07/01 04:52:40;;;;;;;6.88;4.80;;;;;;;-144.30;26.85;80739.84;5035302;28;20254;-78
2023/07/01 04:55:09;;;;;;;5.50;4.80;;;;;;;-144.30;27.11;80878.81;5045917;28;20205;-79
2023/07/01 04:57:36;;;;;;;6.05;5.03;;;;;;;-144.30;27.16;81196.50;5053326;28;20193;-78
2023/07/01 05:00:05;;;;;;;5.18;4.85;;;;;;;-144.30;27.65;81057.50;5046744;28;20197;-79
2023/07/01 05:02:32;;;;;;;7.00;5.53;;;;;;;-144.30;27.35;81043.59;5041174;28;20669;-79
2023/07/01 05:04:59;;;;;;;5.63;5.13;;;;;;;-144.30;27.86;81128.97;5055194;28;20196;-79
2023/07/01 05:07:26;;;;;;;6.00;5.50;;;;;;;-144.30;27.90;81200.47;5055188;28;20283;-77
2023/07/01 05:09:53;;;;;;;7.03;5.57;;;;;;;-144.30;27.72;80995.97;5055655;28;20291;-82
2023/07/01 05:12:21;;;;;;;8.27;5.82;;;;;;;-144.30;28.12;81152.81;5049876;28;20274;-78
2023/07/01 05:14:48;;;;;;;6.18;5.57;;;;;;;-144.30;28.00;81061.47;5045785;28;20193;-80
2023/07/01 05:17:16;;;;;;;5.78;5.38;;;;;;;-144.30;27.35;80763.66;5046773;28;20232;-77
2023/07/01 05:19:42;;;;;;;6.45;5.80;;;;;;;-144.30;27.26;80988.00;5046042;28;20694;-76
2023/07/01 05:22:09;;;;;;;7.80;6.03;;;;;;;-144.30;28.29;81254.06;5043170;28;20196;-77
2023/07/01 05:24:36;;;;;;;7.20;6.45;;;;;;;-144.30;27.74;80797.41;5043368;28;20559;-78
2023/07/01 05:27:04;;;;;;;6.65;5.97;;;;;;;-144.30;27.40;80795.44;5045380;28;20188;-79
2023/07/01 05:29:32;;;;;;;7.30;6.38;;;;;;;-144.30;27.36;80795.44;5046918;28;20606;-79
2023/07/01 05:31:59;;;;;;;13.95;6.13;;;;;;;-144.30;27.06;80721.97;5046281;28;20213;-79
2023/07/01 05:34:26;;;;;;;6.35;5.95;;;;;;;-144.30;26.62;80588.97;5047401;28;20219;-83
2023/07/01 05:36:53;;;;;;;8.63;6.00;;;;;;;-144.30;26.65;80660.44;5048390;28;20200;-85
2023/07/01 05:39:20;;;;;;;6.45;6.00;;;;;;;-144.30;26.63;80600.88;5046392;28;20205;-84
2023/07/01 05:41:47;;;;;;;6.72;6.13;;;;;;;-144.30;26.67;80674.34;5047703;28;20347;-82
2023/07/01 05:44:14;;;;;;;6.68;6.22;;;;;;;-144.30;26.79;80674.34;5047103;28;20649;-80
2023/07/01 05:46:42;;;;;;;11.30;6.80;;;;;;;-144.30;26.84;80723.97;5045959;28;20196;-80
2023/07/01 05:49:10;;;;;;;7.30;6.47;;;;;;;-144.30;26.77;80708.09;5048762;28;20195;-81
2023/07/01 05:51:38;;;;;;;7.68;6.97;;;;;;;-144.30;26.87;80727.94;5042779;28;20622;-81
2023/07/01 05:54:05;;;;;;;6.53;5.97;;;;;;;-144.30;26.67;80747.78;5037854;28;20197;-83
2023/07/01 05:56:38;;;;;;;6.50;5.90;;;;;;;-144.30;27.50;80991.97;5049365;28;20202;-79
2023/07/01 05:59:05;;;;;;;9.45;7.80;;;;;;;-144.30;27.79;80976.09;5056914;28;20195;-80
2023/07/01 06:01:32;;;;;;;7.68;6.97;;;;;;;-144.30;27.84;81121.03;5057365;28;20227;-79
2023/07/01 06:04:01;;;;;;;7.32;6.75;;;;;;;-144.30;28.29;81303.72;5057330;28;20204;-78
2023/07/01 06:06:28;;;;;;;6.25;5.93;;;;;;;-144.30;28.00;81440.72;5052020;28;20204;-79
2023/07/01 06:08:55;;;;;;;8.15;5.75;;;;;;;-144.30;27.81;81271.94;5042413;28;20196;-79
2023/07/01 06:11:22;;;;;;;5.20;4.90;;;;;;;-144.30;27.98;81345.41;5054424;28;20231;-80
2023/07/01 06:13:49;;;;;;;5.72;5.22;;;;;;;-144.30;28.23;81387.09;5053878;28;20278;-79
2023/07/01 06:16:19;;;;;;;6.53;5.38;;;;;;;-144.30;28.55;81488.38;5054481;28;20275;-79
2023/07/01 06:18:46;;;;;;;6.25;5.85;;;;;;;-144.30;28.32;81395.03;5056777;28;20226;-80
2023/07/01 06:21:15;;;;;;;5.50;5.13;;;;;;;-144.30;28.49;81462.56;5058419;28;20552;-79
2023/07/01 06:23:42;;;;;;;5.65;5.25;;;;;;;-144.30;29.21;81657.16;5058074;28;20295;-78
2023/07/01 06:26:08;;;;;;;5.40;4.88;;;;;;;-144.30;29.27;81748.50;5055720;28;20203;-79
2023/07/01 06:28:35;;;;;;;5.65;4.47;;;;;;;-144.30;30.14;81740.56;5054243;28;20647;-77
2023/07/01 06:31:02;;;;;;;5.60;5.20;;;;;;;-144.30;29.92;81883.53;5053835;28;20203;-77
2023/07/01 06:33:29;;;;;;;5.55;5.15;;;;;;;-144.30;30.21;81955.03;5053919;28;20224;-78
2023/07/01 06:35:56;;;;;;;5.47;5.22;;;;;;;-144.30;30.83;82582.66;5056496;28;20212;-77
2023/07/01 06:38:25;;;;;;;5.90;5.45;;;;;;;-144.30;30.81;81959.00;5054621;28;20204;-76
2023/07/01 06:40:52;;;;;;;5.72;4.85;;;;;;;-144.30;30.55;81974.91;5047874;28;20221;-78
2023/07/01 06:43:18;;;;;;;4.90;4.60;;;;;;;-144.30;30.82;82056.31;5043093;28;20193;-76
2023/07/01 06:45:46;;;;;;;5.03;4.68;;;;;;;-144.30;30.40;82096.03;5042534;28;20224;-79
2023/07/01 06:48:12;;;;;;;4.93;4.63;;;;;;;-144.30;30.16;82058.31;5044232;28;20689;-76
2023/07/01 06:50:39;;;;;;;5.13;4.82;;;;;;;-144.30;30.47;82169.53;5039366;28;20194;-77
2023/07/01 06:53:07;;;;;;;4.90;4.55;;;;;;;-144.30;30.78;82213.22;5052916;28;20229;-80
2023/07/01 06:55:35;;;;;;;6.25;4.80;;;;;;;-144.30;30.57;82141.72;5053880;28;20228;-84
2023/07/01 06:58:03;;;;;;;7.28;6.88;;;;;;;-144.30;30.44;82100.00;5053810;28;20252;-81
2023/07/01 07:00:30;;;;;;;9.00;8.23;;;;;;;-144.30;30.53;82119.88;5052881;28;20247;-79
2023/07/01 07:02:57;;;;;;;5.75;4.20;;;;;;;-144.30;30.24;82074.19;5053810;28;20231;-84
2023/07/01 07:05:24;;;;;;;4.30;4.10;;;;;;;-144.30;30.01;81855.75;5053477;28;20259;-79
2023/07/01 07:07:51;;;;;;;4.53;4.32;;;;;;;-144.30;30.06;81962.97;5053410;28;20581;-81
2023/07/01 07:10:18;;;;;;;5.20;4.75;;;;;;;-144.30;29.79;82018.59;5053118;28;20211;-79
2023/07/01 07:12:46;;;;;;;8.93;4.95;;;;;;;-144.30;29.72;81633.31;5052433;28;20216;-79
2023/07/01 07:15:14;;;;;;;6.80;6.40;;;;;;;-144.30;29.99;82352.25;5053034;28;20196;-78
2023/07/01 07:17:40;;;;;;;4.60;4.32;;;;;;;-144.30;30.05;82022.56;5053264;28;20189;-79
2023/07/01 07:20:09;;;;;;;8.73;8.00;;;;;;;-144.30;30.25;82131.78;5053409;28;20197;-78
2023/07/01 07:22:39;;;;;;;5.07;4.68;;;;;;;-144.30;30.81;82032.50;5052647;28;20637;-81
2023/07/01 07:25:06;;;;;;;5.72;5.43;;;;;;;-144.30;30.52;82225.13;5052458;28;20199;-77
2023/07/01 07:27:33;;;;;;;5.30;4.90;;;;;;;-144.30;30.98;82322.47;5052489;28;20255;-78
2023/07/01 07:30:02;;;;;;;5.35;5.05;;;;;;;-144.30;31.03;82165.56;5053248;28;20205;-76
2023/07/01 07:32:29;;;;;;;5.00;4.60;;;;;;;-144.30;30.81;82177.47;5052470;28;20248;-80
2023/07/01 07:34:56;;;;;;;8.10;6.20;;;;;;;-144.30;31.30;82270.81;5053261;28;20201;-79
2023/07/01 07:37:23;;;;;;;5.32;4.82;;;;;;;-144.30;31.37;82245.00;5052583;28;20266;-77
2023/07/01 07:39:50;;;;;;;5.13;4.80;;;;;;;-144.30;30.63;82153.63;5052532;28;20201;-78
2023/07/01 07:42:16;;;;;;;5.05;4.82;;;;;;;-144.30;30.53;82163.56;5052618;28;20279;-78
2023/07/01 07:44:44;;;;;;;5.05;4.85;;;;;;;-144.30;30.38;81933.19;5052690;28;20199;-78
2023/07/01 07:47:15;;;;;;;5.57;5.18;;;;;;;-144.30;30.35;82068.25;5052081;28;20204;-79
2023/07/01 07:49:42;;;;;;;6.32;5.30;;;;;;;-144.30;30.19;81800.13;5050664;28;20192;-81
2023/07/01 07:52:09;;;;;;;7.72;5.70;;;;;;;-144.30;30.11;81905.38;5053921;28;20224;-78
2023/07/01 07:54:37;;;;;;;7.32;5.22;;;;;;;-144.30;29.98;81996.75;5051858;28;20296;-81
2023/07/01 07:57:05;;;;;;;5.00;4.60;;;;;;;-144.30;29.32;81744.53;5054975;28;20228;-79
2023/07/01 07:59:34;;;;;;;4.38;4.07;;;;;;;-144.30;28.58;82066.25;5052109;28;20211;-80
2023/07/01 08:02:02;;;;;;;4.53;4.22;;;;;;;-144.30;28.67;81248.13;5052456;28;20200;-81
2023/07/01 08:04:30;;;;;;;5.32;5.03;;;;;;;-144.30;28.56;81625.38;5053359;28;20192;-82
2023/07/01 08:06:57;;;;;;;5.30;4.90;;;;;;;-144.30;28.83;81577.72;5052746;28;20196;-81
2023/07/01 08:09:24;;;;;;;4.82;4.57;;;;;;;-144.30;28.58;81611.47;5052350;28;20594;-78
2023/07/01 08:11:50;;;;;;;5.60;5.30;;;;;;;-144.30;28.59;81563.81;5052087;28;20250;-80
2023/07/01 08:14:20;;;;;;;4.93;4.63;;;;;;;-144.30;28.42;81462.56;5050160;28;20223;-79
2023/07/01 08:16:47;;;;;;;6.00;4.53;;;;;;;-144.30;28.23;81337.47;5051180;28;20214;-78
2023/07/01 08:19:13;;;;;;;4.80;4.50;;;;;;;-144.30;27.67;81200.47;5051223;28;20184;-78
2023/07/01 08:21:42;;;;;;;6.07;4.82;;;;;;;-144.30;27.33;81045.59;5052056;28;20199;-79
2023/07/01 08:24:09;;;;;;;4.90;4.60;;;;;;;-144.30;27.16;81097.22;5051499;28;20290;-78
2023/07/01 08:26:36;;;;;;;4.80;4.40;;;;;;;-144.30;27.13;81019.78;5051831;28;20223;-79
2023/07/01 08:29:03;;;;;;;4.80;4.25;;;;;;;-144.30;27.11;81003.91;5051151;28;20192;-79
2023/07/01 08:31:31;;;;;;;5.40;4.60;;;;;;;-144.30;27.25;80815.28;5051583;28;20200;-78
2023/07/01 08:33:58;;;;;;;5.15;4.22;;;;;;;-144.30;27.73;81198.47;5053028;28;20248;-78
2023/07/01 08:36:25;;;;;;;5.53;5.00;;;;;;;-144.30;27.37;81063.47;5051642;28;20287;-79
2023/07/01 08:38:54;;;;;;;5.50;5.00;;;;;;;-144.30;27.51;81105.16;5051254;28;20665;-78
2023/07/01 08:41:25;;;;;;;5.63;5.07;;;;;;;-144.30;27.77;81172.66;5051789;28;20200;-77
2023/07/01 08:43:53;;;;;;;4.90;4.60;;;;;;;-144.30;28.09;81331.50;5052294;28;20227;-79
2023/07/01 08:46:20;;;;;;;6.05;5.00;;;;;;;-144.30;28.51;81541.97;5051600;28;20200;-79
2023/07/01 08:48:48;;;;;;;5.20;4.82;;;;;;;-144.30;28.74;81637.31;5051720;28;20196;-79
2023/07/01 08:51:21;;;;;;;6.05;4.78;;;;;;;-144.30;28.95;81675.03;5052333;28;20232;-78
2023/07/01 08:53:49;;;;;;;4.80;4.60;;;;;;;-144.30;29.04;81502.28;5051091;28;20224;-78
2023/07/01 08:56:19;;;;;;;5.53;5.15;;;;;;;-144.30;28.89;81716.72;5051016;28;20553;-79
2023/07/01 08:58:47;;;;;;;5.15;4.80;;;;;;;-144.30;29.16;81782.25;5050311;28;20591;-80
2023/07/01 09:01:15;;;;;;;5.05;4.75;;;;;;;-144.30;29.31;81750.50;5051659;28;20592;-79
2023/07/01 09:03:43;;;;;;;5.28;4.88;;;;;;;-144.30;29.01;81720.69;5051490;28;20724;-79
2023/07/01 09:06:10;;;;;;;4.90;4.60;;;;;;;-144.30;28.83;81760.41;5052233;28;20629;-79
2023/07/01 09:08:39;;;;;;;5.78;4.93;;;;;;;-144.30;29.20;81804.09;5051833;28;20201;-79
2023/07/01 09:11:06;;;;;;;5.88;5.57;;;;;;;-144.30;29.07;81859.72;5052086;28;20278;-80
2023/07/01 09:13:34;;;;;;;4.93;4.63;;;;;;;-144.30;28.93;81728.66;5053704;28;20311;-80
2023/07/01 09:16:01;;;;;;;5.47;5.07;;;;;;;-144.30;28.80;81734.59;5056023;28;20258;-81
2023/07/01 09:18:29;;;;;;;5.30;4.95;;;;;;;-144.30;28.95;81649.22;5055081;28;20207;-80
2023/07/01 09:20:57;;;;;;;7.57;5.13;;;;;;;-144.30;28.94;81637.31;5051747;28;20261;-81
2023/07/01 09:23:31;;;;;;;5.45;5.13;;;;;;;-144.30;28.91;81613.47;5055623;28;20657;-83
2023/07/01 09:26:17;;;;;;;6.10;5.60;;;;;;;-144.30;29.48;81746.53;5055494;28;20278;-80
2023/07/01 09:28:47;;;;;;;5.68;5.18;;;;;;;-144.30;29.36;81738.56;5047697;28;20196;-78
2023/07/01 09:31:15;;;;;;;5.60;5.30;;;;;;;-144.30;29.34;81714.75;5039641;28;20217;-79
2023/07/01 09:33:58;;;;;;;6.47;5.63;;;;;;;-144.30;29.97;81738.56;5034363;28;20225;-79
2023/07/01 09:36:26;;;;;;;5.82;5.43;;;;;;;-144.30;30.10;81714.75;5048433;28;20227;-79
2023/07/01 09:38:54;;;;;;;5.22;4.93;;;;;;;-144.30;30.23;81911.34;5045284;28;20289;-81
2023/07/01 09:41:24;;;;;;;5.80;5.40;;;;;;;-144.30;30.38;81883.53;5040884;28;20197;-81
2023/07/01 09:43:53;;;;;;;7.63;5.65;;;;;;;-144.30;30.45;81899.44;5050203;28;20193;-81
2023/07/01 09:46:20;;;;;;;5.97;5.47;;;;;;;-144.30;30.54;81883.53;5044348;28;20201;-80
2023/07/01 09:48:54;;;;;;;7.78;5.22;;;;;;;-144.30;30.45;81899.44;5043827;28;20185;-81
2023/07/01 09:51:21;;;;;;;5.13;4.60;;;;;;;-144.30;30.41;82006.69;5045591;28;20204;-80
2023/07/01 09:53:48;;;;;;;5.70;5.40;;;;;;;-144.30;31.14;82090.09;5047046;28;20218;-80
2023/07/01 09:56:17;;;;;;;6.00;5.63;;;;;;;-144.30;30.81;81820.00;5046719;28;20303;-81
2023/07/01 09:58:45;;;;;;;5.22;4.82;;;;;;;-144.30;30.80;82086.13;5041067;28;20657;-81
2023/07/01 10:01:18;;;;;;;5.53;5.13;;;;;;;-144.30;30.77;82084.13;5045419;28;20203;-81
2023/07/01 10:03:45;;;;;;;5.43;5.13;;;;;;;-144.30;29.91;81998.72;5047778;28;20286;-81
2023/07/01 10:06:12;;;;;;;5.05;4.47;;;;;;;-144.30;29.55;82010.66;5043891;28;20229;-82
2023/07/01 10:08:39;;;;;;;5.13;4.82;;;;;;;-144.30;30.06;82056.31;5045834;28;20789;-80
2023/07/01 10:11:09;;;;;;;5.82;4.90;;;;;;;-144.30;31.04;82113.91;5044158;28;20225;-79
2023/07/01 10:13:44;;;;;;;5.53;5.03;;;;;;;-144.30;30.11;82076.19;5044165;28;20259;-80
2023/07/01 10:16:12;;;;;;;6.10;5.70;;;;;;;-144.30;31.68;82157.63;5044416;28;20283;-80
2023/07/01 10:18:40;;;;;;;6.78;6.15;;;;;;;-144.30;31.13;82123.84;5045870;28;20656;-80
2023/07/01 10:21:34;;;;;;;5.95;5.32;;;;;;;-144.30;32.13;82258.91;5043818;28;20201;-82
2023/07/01 10:24:01;;;;;;;6.28;5.88;;;;;;;-144.30;32.50;82044.41;5012007;28;20198;-81
2023/07/01 10:26:37;;;;;;;6.57;5.78;;;;;;;-144.30;33.37;82298.63;5042863;28;20580;-83
2023/07/01 10:29:37;;;;;;;6.50;5.72;;;;;;;-144.30;32.89;82290.69;5050861;28;20212;-83
2023/07/01 10:32:32;;;;;;;6.70;6.20;;;;;;;-144.30;32.90;82419.78;5048826;28;20196;-83
2023/07/01 10:35:24;;;;;;;6.35;5.75;;;;;;;-144.30;33.40;82485.34;5045238;28;20213;-82
2023/07/01 10:38:22;;;;;;;5.65;5.13;;;;;;;-144.30;34.16;82813.06;5031945;28;20200;-85
2023/07/01 10:40:49;;;;;;;6.97;5.38;;;;;;;-144.30;32.86;82525.06;5050192;28;20296;-82
2023/07/01 10:43:29;;;;;;;6.10;5.63;;;;;;;-144.30;34.11;82666.09;5045460;28;20653;-83
2023/07/01 10:46:07;;;;;;;7.90;5.85;;;;;;;-144.30;33.54;82594.56;5044485;28;20472;-81
2023/07/01 10:48:35;;;;;;;6.30;5.38;;;;;;;-144.30;33.40;82598.56;5043826;28;20200;-81
2023/07/01 10:51:04;;;;;;;5.60;5.30;;;;;;;-144.30;32.93;82558.81;5043977;28;20192;-82
2023/07/01 10:53:32;;;;;;;5.78;5.35;;;;;;;-144.30;32.66;82600.53;5047784;28;20219;-83
2023/07/01 10:56:15;;;;;;;6.28;5.60;;;;;;;-144.30;31.23;82586.63;5043896;28;20257;-82
2023/07/01 10:58:43;;;;;;;5.57;5.05;;;;;;;-144.30;31.15;82564.78;5045268;28;20201;-82
2023/07/01 11:01:42;;;;;;;5.07;4.50;;;;;;;-144.30;32.38;82622.38;5045731;28;20232;-81
2023/07/01 11:04:08;;;;;;;5.03;4.72;;;;;;;-144.30;31.81;82622.38;5043493;28;20207;-81
2023/07/01 11:06:47;;;;;;;5.45;5.15;;;;;;;-144.30;31.36;82588.63;5043468;28;20283;-82
2023/07/01 11:09:15;;;;;;;4.80;4.50;;;;;;;-144.30;30.42;83210.38;5043015;28;20261;-82
2023/07/01 11:11:42;;;;;;;4.53;3.90;;;;;;;-144.30;30.31;82660.13;5043570;28;20289;-81
2023/07/01 11:14:11;;;;;;;3.55;3.45;;;;;;;-144.30;29.63;82646.22;5046270;28;20281;-80
2023/07/01 11:16:40;;;;;;;3.90;3.70;;;;;;;-144.30;28.68;82662.09;5042973;28;20188;-80
2023/07/01 11:19:08;;;;;;;3.75;3.55;;;;;;;-144.30;27.69;82610.47;5044967;28;20772;-81
2023/07/01 11:21:36;;;;;;;3.83;3.40;;;;;;;-144.30;27.62;82566.78;5043605;28;20193;-81
2023/07/01 11:24:05;;;;;;;3.63;3.35;;;;;;;-144.30;27.98;82511.16;5044660;28;20217;-83